M I D A S
Marine Information and Data Acquisition System
Tripno 394 of the Zeeleeuw from 2002-11-28 07:58:29 to 2002-11-28 15:38:08
Back to CruiseResearch ActivitiesStationsMapUnderway DataData graphs

EquipmentUnitsComment
TimeDGPSUTC
LatitudeDGPSDM.mWGS84
LongitudeDGPSDM.mWGS84
HeadingGyrodeg 
SOGDGPSknotsSpeed over ground
COGDGPSdegCourse over ground
DepthEcho soundermeters200 kHz
Missing or incorrect values are displayed as -999
Navigation data collected by the RV Zeeleeuw from 2002-11-28 07:58:29 to 2002-11-28 15:38:08
                                                                                    Next 1000 lines
Time Latitude Longitude Heading SOG COG Depth
2002-11-28 07:58:39 51°13.663 2°55.911 119.3 3.3 302.2 -999
2002-11-28 07:58:44 51°13.665 2°55.904 118 3.3 301 10.7
2002-11-28 07:58:48 51°13.667 2°55.899 116.5 3.3 299.1 -999
2002-11-28 07:58:54 51°13.669 2°55.891 115 3.3 296.7 -999
2002-11-28 07:58:59 51°13.671 2°55.885 113 3.3 295.4 -999
2002-11-28 07:59:05 51°13.672 2°55.877 111.2 3.3 294.2 -999
2002-11-28 07:59:09 51°13.674 2°55.871 109.5 3.3 293.2 -999
2002-11-28 07:59:14 51°13.675 2°55.864 107.8 3.3 291.5 -999
2002-11-28 07:59:19 51°13.677 2°55.857 106.3 3.3 290.5 -999
2002-11-28 07:59:24 51°13.678 2°55.85 104.5 3.3 287.9 -999
2002-11-28 07:59:29 51°13.679 2°55.843 102.7 3.3 285.5 -999
2002-11-28 07:59:34 51°13.68 2°55.836 101 3.3 284 -999
2002-11-28 07:59:39 51°13.681 2°55.83 99.5 3.3 283 5.2
2002-11-28 07:59:44 51°13.682 2°55.823 97.8 3.2 282.2 -999
2002-11-28 07:59:49 51°13.683 2°55.816 96.2 3 280.1 -999
2002-11-28 07:59:54 51°13.683 2°55.81 94.5 2.9 278.6 -999
2002-11-28 07:59:59 51°13.683 2°55.804 93.2 2.8 276.9 4.7
2002-11-28 08:00:05 51°13.684 2°55.797 92 2.8 275.5 11.2
2002-11-28 08:00:08 51°13.684 2°55.793 91 2.7 273.6 11.5
2002-11-28 08:00:15 51°13.684 2°55.786 89.7 2.6 273.5 12.6
2002-11-28 08:00:19 51°13.684 2°55.782 88.2 2.4 273.4 13.3
2002-11-28 08:00:25 51°13.684 2°55.776 86.7 2.3 272.1 13.9
2002-11-28 08:00:29 51°13.684 2°55.772 85 2.1 269.5 13.8
2002-11-28 08:00:34 51°13.684 2°55.768 83.3 2 268.4 14.2
2002-11-28 08:00:38 51°13.685 2°55.765 81.7 1.8 267.4 14
2002-11-28 08:00:45 51°13.685 2°55.76 80.2 1.7 267.6 13.7
2002-11-28 08:00:49 51°13.684 2°55.758 79 1.5 267.2 14.5
2002-11-28 08:00:54 51°13.684 2°55.755 77.5 1.4 267.8 14
2002-11-28 08:00:59 51°13.685 2°55.753 75.8 1.1 272.7 14.1
2002-11-28 08:01:05 51°13.685 2°55.751 73.2 0.9 274.7 14.2
2002-11-28 08:01:09 51°13.685 2°55.75 69.8 0.6 279.4 14.3
2002-11-28 08:01:15 51°13.685 2°55.75 65.8 0.4 296.3 13.9
2002-11-28 08:01:19 51°13.686 2°55.75 61.8 0.3 332.1 14.5
2002-11-28 08:01:25 51°13.687 2°55.75 57.3 0.4 357.6 13.7
2002-11-28 08:01:29 51°13.687 2°55.75 52.8 0.6 15.1 14.4
2002-11-28 08:01:35 51°13.689 2°55.751 47.8 0.8 17.4 14.6
2002-11-28 08:01:38 51°13.689 2°55.751 42.8 1 19.7 14.7
2002-11-28 08:01:45 51°13.692 2°55.753 37.8 1.1 19.7 14.5
2002-11-28 08:01:48 51°13.693 2°55.753 33.2 1.3 18.8 14.8
2002-11-28 08:01:54 51°13.696 2°55.754 27.3 1.5 17.1 14.3
2002-11-28 08:01:58 51°13.698 2°55.755 22 1.8 10.9 14.2
2002-11-28 08:02:05 51°13.702 2°55.755 15.8 2 7.2 14.8
2002-11-28 08:02:09 51°13.705 2°55.755 9.5 2.2 4 14.6
2002-11-28 08:02:15 51°13.71 2°55.754 2.7 2.6 356.8 14.5
2002-11-28 08:02:19 51°13.713 2°55.753 356 2.9 350.1 13.9
2002-11-28 08:02:24 51°13.717 2°55.75 348.5 3.1 344.9 12.7
2002-11-28 08:02:29 51°13.722 2°55.747 342.2 3.5 337.6 12.6
2002-11-28 08:02:34 51°13.727 2°55.743 338 3.7 334.5 11.9
2002-11-28 08:02:38 51°13.731 2°55.739 335.5 4.1 330 10.9
2002-11-28 08:02:44 51°13.737 2°55.732 333.8 4.3 328.2 11.1
2002-11-28 08:02:48 51°13.742 2°55.728 333.5 4.7 327.1 11.3
2002-11-28 08:02:54 51°13.749 2°55.721 334.2 4.9 327.9 11.1
2002-11-28 08:02:58 51°13.754 2°55.716 334 5.2 328.4 10.2
2002-11-28 08:03:04 51°13.762 2°55.708 332.7 5.4 327.9 10.8
2002-11-28 08:03:08 51°13.767 2°55.702 331.3 5.7 326.4 11
2002-11-28 08:03:14 51°13.775 2°55.693 330.8 5.9 325.5 10.9
2002-11-28 08:03:19 51°13.782 2°55.685 331.2 6.2 325.3 10.3
2002-11-28 08:03:25 51°13.791 2°55.676 331.8 6.3 325.8 10.3
2002-11-28 08:03:28 51°13.796 2°55.671 333 6.4 326.4 11.2
2002-11-28 08:03:35 51°13.807 2°55.661 334.7 6.6 328 11.3
2002-11-28 08:03:39 51°13.814 2°55.655 336.3 6.8 330.6 11
2002-11-28 08:03:44 51°13.823 2°55.647 338 7 332.1 11.2
2002-11-28 08:03:48 51°13.83 2°55.642 339.2 7.2 333.6 11.3
2002-11-28 08:03:54 51°13.841 2°55.634 340.5 7.2 334.5 10.6
2002-11-28 08:03:59 51°13.85 2°55.627 341.8 7.3 335.6 12
2002-11-28 08:04:04 51°13.86 2°55.621 342.8 7.4 336.6 11.6
2002-11-28 08:04:08 51°13.867 2°55.616 342.5 7.5 337.1 10.3
2002-11-28 08:04:14 51°13.879 2°55.608 342.3 7.6 337.4 11.7
2002-11-28 08:04:19 51°13.889 2°55.602 342.3 7.6 337.6 10.8
2002-11-28 08:04:25 51°13.9 2°55.594 342.3 7.5 337.6 -999
2002-11-28 08:04:29 51°13.907 2°55.589 342.2 7.4 337 10.3
2002-11-28 08:04:34 51°13.917 2°55.583 342 7.2 337.1 -999
2002-11-28 08:04:39 51°13.926 2°55.576 341.7 7.1 336.9 11.1
2002-11-28 08:04:44 51°13.935 2°55.57 341.8 7 337 10.8
2002-11-28 08:04:49 51°13.944 2°55.564 342 7 337.3 10.8
2002-11-28 08:04:55 51°13.954 2°55.557 341.8 7 337.3 11
2002-11-28 08:04:59 51°13.961 2°55.553 341.3 6.8 337.5 11.1
2002-11-28 08:05:04 51°13.969 2°55.547 341.3 6.6 337.5 11.7
2002-11-28 08:05:08 51°13.976 2°55.543 341.5 6.4 337.1 11.5
2002-11-28 08:05:14 51°13.986 2°55.536 341.5 6.4 336.9 5
2002-11-28 08:05:19 51°13.993 2°55.531 341 6.2 336.4 11.1
2002-11-28 08:05:25 51°14.003 2°55.524 340.7 6.1 336 9.6
2002-11-28 08:05:29 51°14.009 2°55.52 340.7 6 335.8 11.4
2002-11-28 08:05:34 51°14.016 2°55.515 340.8 5.9 335.9 -999
2002-11-28 08:05:39 51°14.023 2°55.509 340.5 5.8 335.6 -999
2002-11-28 08:05:44 51°14.03 2°55.504 340.2 5.7 335.3 11.4
2002-11-28 08:05:48 51°14.036 2°55.5 339.7 5.6 334.4 -999
2002-11-28 08:05:55 51°14.045 2°55.492 339.2 5.5 334 10.1
2002-11-28 08:05:58 51°14.049 2°55.488 338.7 5.5 333 10.5
2002-11-28 08:06:04 51°14.057 2°55.482 338.3 5.4 332.6 -999
2002-11-28 08:06:08 51°14.062 2°55.478 338.2 5.3 332.4 10.9
2002-11-28 08:06:14 51°14.07 2°55.471 338.2 5.2 332.5 10.3
2002-11-28 08:06:19 51°14.076 2°55.466 338.5 5.2 332.7 10.7
2002-11-28 08:06:24 51°14.083 2°55.461 339 5.1 332.9 -999
2002-11-28 08:06:29 51°14.089 2°55.455 339.3 5.1 332.6 10.4
2002-11-28 08:06:35 51°14.097 2°55.449 339.8 5.1 333.4 9.8
2002-11-28 08:06:38 51°14.101 2°55.447 340 5 333.8 11.2
2002-11-28 08:06:45 51°14.109 2°55.44 339.8 5 334.1 11
2002-11-28 08:06:49 51°14.114 2°55.436 339.7 4.9 333.3 10
2002-11-28 08:06:55 51°14.121 2°55.43 339.3 5 333.1 11
2002-11-28 08:06:59 51°14.126 2°55.426 339.2 4.9 333.2 11
2002-11-28 08:07:05 51°14.133 2°55.42 339.2 4.9 333.3 11
2002-11-28 08:07:09 51°14.138 2°55.416 339 4.9 332.8 10.9
2002-11-28 08:07:15 51°14.145 2°55.41 338.8 4.9 332.6 9.9
2002-11-28 08:07:19 51°14.15 2°55.407 338.5 4.8 332.5 11.9
2002-11-28 08:07:25 51°14.157 2°55.401 338.2 4.8 332.4 10.8
2002-11-28 08:07:29 51°14.161 2°55.397 337.8 4.8 332.1 11.3
2002-11-28 08:07:35 51°14.168 2°55.391 337.7 4.7 332.4 -999
2002-11-28 08:07:39 51°14.173 2°55.387 337.5 4.7 332 -999
2002-11-28 08:07:45 51°14.18 2°55.381 337.2 4.7 331.8 11.2
2002-11-28 08:07:49 51°14.184 2°55.377 336.7 4.8 331.3 11.6
2002-11-28 08:07:53 51°14.189 2°55.374 335.8 4.7 331 11.2
2002-11-28 08:07:58 51°14.194 2°55.368 334.8 4.7 330.4 10.8
2002-11-28 08:08:04 51°14.201 2°55.362 333.8 4.6 330 11.3
2002-11-28 08:08:08 51°14.205 2°55.358 332.7 4.6 328.5 11.5
2002-11-28 08:08:14 51°14.212 2°55.351 331.3 4.6 327.3 11.3
2002-11-28 08:08:19 51°14.217 2°55.345 330.2 4.7 326.2 11.3
2002-11-28 08:08:24 51°14.222 2°55.339 328.8 4.7 325.3 11.3
2002-11-28 08:08:29 51°14.227 2°55.333 327.7 4.6 323.7 11.1
2002-11-28 08:08:35 51°14.234 2°55.325 326.7 4.7 322.9 11.1
2002-11-28 08:08:39 51°14.238 2°55.32 325.8 4.7 321.8 10.6
2002-11-28 08:08:44 51°14.243 2°55.313 325 4.7 321.2 10.1
2002-11-28 08:08:48 51°14.247 2°55.308 324.3 4.7 320 11
2002-11-28 08:08:55 51°14.254 2°55.298 323.3 4.7 318.9 10.9
2002-11-28 08:08:59 51°14.258 2°55.292 322.2 4.8 317.7 11
2002-11-28 08:09:05 51°14.264 2°55.283 321 4.9 316.8 11.4
2002-11-28 08:09:09 51°14.268 2°55.276 319.7 5 315.8 11
2002-11-28 08:09:15 51°14.274 2°55.265 318.2 5.5 314.1 10.1
2002-11-28 08:09:19 51°14.279 2°55.257 316.8 5.9 312.5 11.3
2002-11-28 08:09:25 51°14.286 2°55.243 315.3 6.3 311.2 11.1
2002-11-28 08:09:29 51°14.291 2°55.233 314 6.9 309 10.4
2002-11-28 08:09:35 51°14.299 2°55.216 313 7.4 307.6 11
2002-11-28 08:09:39 51°14.305 2°55.204 312.5 8.2 306.7 11.3
2002-11-28 08:09:45 51°14.314 2°55.185 312.5 8.6 306.4 10.9
2002-11-28 08:09:49 51°14.32 2°55.171 312.7 9.2 306.6 9.7
2002-11-28 08:09:55 51°14.33 2°55.15 312.5 9.7 306.6 18.2
2002-11-28 08:09:59 51°14.337 2°55.136 312.5 10.1 306.6 18.5
2002-11-28 08:10:04 51°14.346 2°55.117 312.5 10.3 306.6 18.5
2002-11-28 08:10:09 51°14.355 2°55.098 312.7 10.7 306.8 18.6
2002-11-28 08:10:15 51°14.366 2°55.074 313 10.8 307 -999
2002-11-28 08:10:19 51°14.374 2°55.059 313.3 11.1 307.4 -999
2002-11-28 08:10:25 51°14.385 2°55.035 314.2 11.3 308 11.1
2002-11-28 08:10:29 51°14.394 2°55.02 315.2 11.5 308.8 10.9
2002-11-28 08:10:35 51°14.407 2°54.996 316.5 11.7 310 -999
2002-11-28 08:10:39 51°14.416 2°54.981 317.2 11.9 311.5 11
2002-11-28 08:10:45 51°14.429 2°54.957 316.8 12 311.8 -999
2002-11-28 08:10:49 51°14.439 2°54.94 316.8 12.2 312.4 -999
2002-11-28 08:10:55 51°14.453 2°54.917 316.5 12.3 312.7 10.1
2002-11-28 08:10:59 51°14.462 2°54.902 317 12.3 313.8 10.8
2002-11-28 08:11:05 51°14.477 2°54.878 317 12.3 314.2 18.2
2002-11-28 08:11:09 51°14.487 2°54.863 318 12.3 315.1 8.7
2002-11-28 08:11:15 51°14.502 2°54.84 318.7 12.3 316 18.3
2002-11-28 08:11:19 51°14.511 2°54.825 319.3 12.4 316.5 18.3
2002-11-28 08:11:25 51°14.526 2°54.803 319.5 12.4 316.6 10.7
2002-11-28 08:11:29 51°14.537 2°54.788 320 12.4 316.9 10.2
2002-11-28 08:11:35 51°14.552 2°54.766 320.2 12.4 317.2 10.4
2002-11-28 08:11:39 51°14.562 2°54.752 320.5 12.3 317.6 10.7
2002-11-28 08:11:45 51°14.577 2°54.73 320.7 12.3 317.8 10.7
2002-11-28 08:11:48 51°14.585 2°54.719 320.3 12.3 317.7 10.7
2002-11-28 08:11:53 51°14.597 2°54.7 320.2 12.4 317.2 -999
2002-11-28 08:11:59 51°14.612 2°54.678 319.5 12.4 316.6 10.1
2002-11-28 08:12:05 51°14.627 2°54.656 319.7 12.4 316.6 17.5
2002-11-28 08:12:09 51°14.637 2°54.64 319.7 12.4 316.9 17.8
2002-11-28 08:12:15 51°14.652 2°54.617 319.7 12.5 316.6 16.4
2002-11-28 08:12:19 51°14.663 2°54.602 319.8 12.7 317 17.6
2002-11-28 08:12:25 51°14.679 2°54.579 320.5 12.7 317.4 17.3
2002-11-28 08:12:29 51°14.69 2°54.566 323 12.8 319.3 18.2
2002-11-28 08:12:34 51°14.704 2°54.549 326 12.8 321.6 17.8
2002-11-28 08:12:39 51°14.719 2°54.533 328.2 12.9 325 10.5
2002-11-28 08:12:44 51°14.735 2°54.517 330.8 13.1 327 10.9
2002-11-28 08:12:49 51°14.751 2°54.503 333.3 13.2 329.8 10.6
2002-11-28 08:12:54 51°14.767 2°54.49 335.3 13.2 331.2 10.5
2002-11-28 08:12:58 51°14.78 2°54.48 336.8 13.2 333.2 10.5
2002-11-28 08:13:04 51°14.8 2°54.465 337.8 13.2 334.1 10.5
2002-11-28 08:13:08 51°14.814 2°54.455 338.3 13.2 334.7 9
2002-11-28 08:13:14 51°14.833 2°54.44 338.3 13.3 334.9 -999
2002-11-28 08:13:19 51°14.85 2°54.427 337.8 13.3 334.3 17
2002-11-28 08:13:24 51°14.866 2°54.414 337 13.2 333.6 10.5
2002-11-28 08:13:29 51°14.883 2°54.4 336.2 13.2 332.8 9.9
2002-11-28 08:13:34 51°14.899 2°54.387 335.8 13.2 332.3 9.6
2002-11-28 08:13:39 51°14.915 2°54.373 335.3 13.2 331.8 -999
2002-11-28 08:13:45 51°14.934 2°54.356 335.3 13.3 331.7 9.8
2002-11-28 08:13:48 51°14.944 2°54.348 335.3 13.2 331.8 9.8
2002-11-28 08:13:54 51°14.963 2°54.331 335.5 13.2 331.6 9.4
2002-11-28 08:13:58 51°14.976 2°54.32 335.8 13.2 331.8 8.8
2002-11-28 08:14:05 51°14.999 2°54.3 335.8 13.2 331.8 -999
2002-11-28 08:14:09 51°15.012 2°54.289 335.5 13.3 331.6 9.4
2002-11-28 08:14:14 51°15.028 2°54.275 335.3 13.4 331.4 9
2002-11-28 08:14:18 51°15.042 2°54.263 335 13.4 331.2 9.4
2002-11-28 08:14:24 51°15.061 2°54.246 334.8 13.5 330.7 9.5
2002-11-28 08:14:29 51°15.078 2°54.231 334.5 13.6 330.4 9.3
2002-11-28 08:14:34 51°15.094 2°54.215 334.2 13.7 329.9 9.7
2002-11-28 08:14:39 51°15.111 2°54.2 334.2 13.8 329.8 9.5
2002-11-28 08:14:45 51°15.131 2°54.181 333.8 13.9 329.7 9.4
2002-11-28 08:14:48 51°15.141 2°54.171 333.8 13.9 329.4 9.5
2002-11-28 08:14:54 51°15.161 2°54.153 334.2 13.9 329.7 9.7
2002-11-28 08:14:58 51°15.174 2°54.14 334.3 13.9 329.9 9.9
2002-11-28 08:15:04 51°15.194 2°54.122 334.8 14 330.3 9.9
2002-11-28 08:15:08 51°15.207 2°54.109 335.2 14.1 330.3 9.8
2002-11-28 08:15:14 51°15.228 2°54.092 335.2 14.1 330.7 10.1
2002-11-28 08:15:19 51°15.245 2°54.076 335.3 14.1 330.5 8.8
2002-11-28 08:15:24 51°15.262 2°54.061 335.3 14.1 330.7 10.1
2002-11-28 08:15:28 51°15.275 2°54.048 334.7 14.1 330.2 8.5
2002-11-28 08:15:34 51°15.296 2°54.03 334.8 14.1 330.3 -999
2002-11-28 08:15:39 51°15.313 2°54.014 334.8 14.2 330.1 10.5
2002-11-28 08:15:44 51°15.33 2°53.998 335 14.2 330.5 10.3
2002-11-28 08:15:48 51°15.343 2°53.986 335.2 14.2 330.6 10.5
2002-11-28 08:15:54 51°15.364 2°53.968 335.2 14.2 330.5 10.7
2002-11-28 08:15:58 51°15.378 2°53.955 335 14.2 330.4 10.7
2002-11-28 08:16:04 51°15.398 2°53.937 335 14.2 330.2 10.2
2002-11-28 08:16:08 51°15.412 2°53.925 335.2 14.1 330.5 10.7
2002-11-28 08:16:14 51°15.432 2°53.906 335 14.1 330.4 10.6
2002-11-28 08:16:18 51°15.446 2°53.893 334.7 14.2 330.3 -999
2002-11-28 08:16:24 51°15.466 2°53.874 334.7 14.2 330.1 11.2
2002-11-28 08:16:28 51°15.48 2°53.862 334.8 14.2 330.2 10.6
2002-11-28 08:16:34 51°15.501 2°53.843 335 14.2 330.3 11.1
2002-11-28 08:16:38 51°15.514 2°53.831 335 14.2 330.3 11.1
2002-11-28 08:16:44 51°15.535 2°53.812 335 14.2 330.4 11
2002-11-28 08:16:48 51°15.549 2°53.8 335 14.2 330.6 11.4
2002-11-28 08:16:54 51°15.569 2°53.781 335 14.2 330.5 11.6
2002-11-28 08:16:58 51°15.583 2°53.769 335.2 14.2 330.7 11.5
2002-11-28 08:17:04 51°15.603 2°53.75 335 14.2 330.6 11.2
2002-11-28 08:17:08 51°15.617 2°53.738 335.2 14.2 330.6 11.5
2002-11-28 08:17:14 51°15.638 2°53.719 335 14.2 330.4 11.8
2002-11-28 08:17:18 51°15.651 2°53.707 334.7 14.2 330.6 12
2002-11-28 08:17:24 51°15.672 2°53.688 335 14.2 330.4 11.4
2002-11-28 08:17:28 51°15.686 2°53.676 334.8 14.2 330.5 11.3
2002-11-28 08:17:34 51°15.707 2°53.657 335 14.2 330.6 11.6
2002-11-28 08:17:38 51°15.72 2°53.645 335 14.2 330.9 12
2002-11-28 08:17:44 51°15.741 2°53.627 335 14.2 330.9 12
2002-11-28 08:17:48 51°15.755 2°53.614 334.8 14.2 330.7 -999
2002-11-28 08:17:54 51°15.775 2°53.596 334.7 14.2 330.6 12.2
2002-11-28 08:17:58 51°15.789 2°53.583 334.7 14.2 330.7 12.4
2002-11-28 08:18:04 51°15.809 2°53.565 334.8 14.2 330.6 -999
2002-11-28 08:18:09 51°15.827 2°53.55 334.7 14.1 330.8 11.4
2002-11-28 08:18:14 51°15.843 2°53.534 334.5 14.1 330.6 12.4
2002-11-28 08:18:18 51°15.857 2°53.522 334.8 14.1 330.6 12.5
2002-11-28 08:18:24 51°15.878 2°53.503 334.5 14.2 330.6 -999
2002-11-28 08:18:28 51°15.891 2°53.491 334.7 14.2 330.7 12.5
2002-11-28 08:18:34 51°15.912 2°53.473 334.8 14.2 330.7 12.7
2002-11-28 08:18:39 51°15.929 2°53.458 334.7 14.1 330.5 12.2
2002-11-28 08:18:44 51°15.946 2°53.442 334.7 14.1 330.6 12.7
2002-11-28 08:18:48 51°15.96 2°53.43 334.7 14.1 330.8 12.9
2002-11-28 08:18:54 51°15.98 2°53.412 334.8 14.1 330.8 12.8
2002-11-28 08:18:58 51°15.994 2°53.4 334.7 14.1 331 12.7
2002-11-28 08:19:04 51°16.014 2°53.382 335.2 14.1 330.9 12.7
2002-11-28 08:19:08 51°16.028 2°53.369 334.8 14.1 330.9 13.1
2002-11-28 08:19:14 51°16.048 2°53.351 334.7 14.1 330.9 13.1
2002-11-28 08:19:19 51°16.065 2°53.336 335 14.1 331 -999
2002-11-28 08:19:24 51°16.083 2°53.321 334.8 14.1 331 12.5
2002-11-28 08:19:28 51°16.096 2°53.309 334.8 14.1 331 12.7
2002-11-28 08:19:34 51°16.117 2°53.291 335 14.1 330.9 12.9
2002-11-28 08:19:39 51°16.134 2°53.276 334.8 14.1 331 12.7
2002-11-28 08:19:44 51°16.151 2°53.26 335 14.1 330.9 13
2002-11-28 08:19:48 51°16.165 2°53.248 334.8 14.1 330.8 12.9
2002-11-28 08:19:54 51°16.185 2°53.23 334.7 14.1 330.7 12.9
2002-11-28 08:19:58 51°16.199 2°53.218 334.7 14.1 330.8 13.3
2002-11-28 08:20:04 51°16.219 2°53.199 334.5 14.1 330.8 12.9
2002-11-28 08:20:08 51°16.233 2°53.187 334.5 14.1 330.6 13.2
2002-11-28 08:20:12 51°16.247 2°53.175 334.8 14.1 331 13.3
2002-11-28 08:20:19 51°16.271 2°53.154 334.8 14.1 331 13
2002-11-28 08:20:24 51°16.288 2°53.139 334.8 14.1 331 13.2
2002-11-28 08:20:28 51°16.301 2°53.127 334.7 14.2 331 13.1
2002-11-28 08:20:34 51°16.322 2°53.109 334.7 14.2 331 13.5
2002-11-28 08:20:39 51°16.339 2°53.094 335.3 14.1 331.5 13.4
2002-11-28 08:20:44 51°16.356 2°53.079 336 14.2 332 13
2002-11-28 08:20:48 51°16.37 2°53.068 336.5 14.2 332.8 13
2002-11-28 08:20:54 51°16.391 2°53.051 336.8 14.1 332.9 13.1
2002-11-28 08:20:59 51°16.409 2°53.037 336.8 14.2 333.2 12.9
2002-11-28 08:21:04 51°16.426 2°53.022 336.7 14.2 333.1 13.2
2002-11-28 08:21:08 51°16.44 2°53.012 336.8 14.2 333.4 12.9
2002-11-28 08:21:14 51°16.461 2°52.995 337 14.1 333.3 12.7
2002-11-28 08:21:18 51°16.475 2°52.983 337 14.1 333.3 13
2002-11-28 08:21:24 51°16.496 2°52.966 336.8 14.2 333.2 12.8
2002-11-28 08:21:28 51°16.51 2°52.955 336.5 14.2 333.1 12.5
2002-11-28 08:21:32 51°16.524 2°52.944 336.7 14.2 332.8 -999
2002-11-28 08:21:39 51°16.549 2°52.924 336.7 14.1 333 12
2002-11-28 08:21:44 51°16.566 2°52.91 336.8 14.1 333 12.4
2002-11-28 08:21:48 51°16.58 2°52.899 336.8 14.1 333.1 12.6
2002-11-28 08:21:54 51°16.601 2°52.881 337 14.1 333 12.6
2002-11-28 08:21:59 51°16.619 2°52.867 336.7 14.1 332.9 -999
2002-11-28 08:22:04 51°16.636 2°52.852 337 14.2 332.8 12.4
2002-11-28 08:22:08 51°16.65 2°52.841 337 14.2 333.1 11.9
2002-11-28 08:22:14 51°16.671 2°52.824 336.7 14.2 332.9 -999
2002-11-28 08:22:19 51°16.688 2°52.809 336.5 14.2 332.6 11.3
2002-11-28 08:22:24 51°16.706 2°52.796 336.7 14.1 332.9 -999
2002-11-28 08:22:28 51°16.72 2°52.784 337.7 14.1 333.3 11.3
2002-11-28 08:22:34 51°16.741 2°52.769 338.8 14.1 334.4 11.3
2002-11-28 08:22:39 51°16.759 2°52.756 339.7 14.1 335.6 10.7
2002-11-28 08:22:44 51°16.777 2°52.743 340.5 14.1 336.4 10.3
2002-11-28 08:22:48 51°16.791 2°52.733 340.7 14.1 336.4 10.2
2002-11-28 08:22:54 51°16.813 2°52.718 341.2 14.1 336.7 10.2
2002-11-28 08:22:59 51°16.831 2°52.707 341.5 14.2 337 10.6
2002-11-28 08:23:05 51°16.853 2°52.692 342.2 14.2 337 9.8
2002-11-28 08:23:08 51°16.864 2°52.685 341.8 14.2 337.1 -999
2002-11-28 08:23:15 51°16.889 2°52.667 341.3 14.2 336.8 10.4
2002-11-28 08:23:18 51°16.9 2°52.66 341.3 14.2 337.1 10.2
2002-11-28 08:23:24 51°16.922 2°52.647 342.5 14.2 337.8 -999
2002-11-28 08:23:28 51°16.936 2°52.637 343.2 14.2 338.6 10.6
2002-11-28 08:23:35 51°16.963 2°52.621 343.5 14.3 338.8 11.1
2002-11-28 08:23:39 51°16.978 2°52.612 344 14.4 339.2 11
2002-11-28 08:23:44 51°16.996 2°52.601 344 14.4 339.5 9.3
2002-11-28 08:23:49 51°17.015 2°52.59 344 14.4 339.6 10.7
2002-11-28 08:23:54 51°17.033 2°52.579 344.5 14.3 339.8 9.9
2002-11-28 08:23:59 51°17.052 2°52.568 344.5 14.3 340 10.4
2002-11-28 08:24:04 51°17.071 2°52.557 344.2 14.3 339.6 10.5
2002-11-28 08:24:09 51°17.089 2°52.546 344.3 14.3 339.5 10.4
2002-11-28 08:24:14 51°17.108 2°52.535 344 14.2 339.6 10.4
2002-11-28 08:24:18 51°17.123 2°52.526 344 14.3 339.4 10.6
2002-11-28 08:24:24 51°17.145 2°52.513 344 14.3 339.4 9.9
2002-11-28 08:24:28 51°17.16 2°52.504 344 14.3 339.4 10.9
2002-11-28 08:24:34 51°17.182 2°52.49 344 14.3 339.5 10.1
2002-11-28 08:24:39 51°17.201 2°52.479 343.8 14.4 339.3 10.8
2002-11-28 08:24:44 51°17.219 2°52.468 343.7 14.4 339.2 10.7
2002-11-28 08:24:48 51°17.234 2°52.459 343.8 14.4 339.2 10.6
2002-11-28 08:24:54 51°17.257 2°52.445 343.8 14.4 339.1 10.9
2002-11-28 08:24:59 51°17.275 2°52.434 344 14.4 339.2 10.1
2002-11-28 08:25:04 51°17.294 2°52.423 344.2 14.4 339.3 10.8
2002-11-28 08:25:09 51°17.313 2°52.412 344.5 14.4 339.4 10.8
2002-11-28 08:25:14 51°17.332 2°52.4 344 14.5 339.3 10.4
2002-11-28 08:25:19 51°17.35 2°52.389 343.7 14.4 339.3 10.6
2002-11-28 08:25:24 51°17.369 2°52.379 344.7 14.4 339.7 10.9
2002-11-28 08:25:29 51°17.388 2°52.369 346.3 14.4 341.6 9.9
2002-11-28 08:25:34 51°17.407 2°52.36 348 14.4 342.9 10.7
2002-11-28 08:25:39 51°17.427 2°52.351 348.7 14.4 343.9 10.8
2002-11-28 08:25:44 51°17.446 2°52.343 349.8 14.4 344.6 11.4
2002-11-28 08:25:48 51°17.461 2°52.337 350 14.4 345.2 11.4
2002-11-28 08:25:54 51°17.485 2°52.327 350.3 14.5 345.1 11.3
2002-11-28 08:25:59 51°17.504 2°52.319 350.5 14.5 345.3 11
2002-11-28 08:26:04 51°17.523 2°52.311 350.5 14.4 345.5 11.2
2002-11-28 08:26:09 51°17.543 2°52.303 350.7 14.4 345.5 11.3
2002-11-28 08:26:14 51°17.562 2°52.295 350.3 14.4 345.6 -999
2002-11-28 08:26:19 51°17.581 2°52.287 350.3 14.4 345.5 11.3
2002-11-28 08:26:24 51°17.601 2°52.28 351.2 14.5 346.1 11.4
2002-11-28 08:26:28 51°17.617 2°52.275 352.3 14.5 346.8 11.2
2002-11-28 08:26:34 51°17.64 2°52.266 353 14.5 347.5 9.9
2002-11-28 08:26:39 51°17.66 2°52.26 353.8 14.5 348.6 10.5
2002-11-28 08:26:45 51°17.683 2°52.252 353.5 14.5 348.3 11.2
2002-11-28 08:26:49 51°17.699 2°52.247 353.3 14.5 348.5 11.2
2002-11-28 08:26:55 51°17.723 2°52.239 353.5 14.5 348.2 -999
2002-11-28 08:26:59 51°17.738 2°52.234 352.8 14.5 348.2 11.2
2002-11-28 08:27:05 51°17.762 2°52.227 353.7 14.4 348.4 9.5
2002-11-28 08:27:09 51°17.778 2°52.221 353.5 14.4 348.5 -999
2002-11-28 08:27:14 51°17.797 2°52.215 353.3 14.5 348.4 -999
2002-11-28 08:27:19 51°17.817 2°52.209 353.8 14.5 348.9 -999
2002-11-28 08:27:24 51°17.836 2°52.202 353.7 14.4 348.6 11.3
2002-11-28 08:27:29 51°17.856 2°52.198 354.8 14.4 349.7 10.7
2002-11-28 08:27:34 51°17.876 2°52.192 355.3 14.5 350.1 -999
2002-11-28 08:27:39 51°17.896 2°52.186 356.2 14.5 350.7 10.9
2002-11-28 08:27:44 51°17.916 2°52.182 356 14.6 351 -999
2002-11-28 08:27:49 51°17.936 2°52.176 356.3 14.5 350.9 10.7
2002-11-28 08:27:54 51°17.956 2°52.171 356.3 14.5 351 11.2
2002-11-28 08:27:59 51°17.976 2°52.167 356.7 14.5 351.2 -999
2002-11-28 08:28:04 51°17.996 2°52.161 356.3 14.6 351.1 10.8
2002-11-28 08:28:09 51°18.016 2°52.157 356.8 14.6 350.9 11.1
2002-11-28 08:28:14 51°18.036 2°52.152 356.7 14.6 351.7 -999
2002-11-28 08:28:19 51°18.056 2°52.147 357.3 14.5 351.3 11.1
2002-11-28 08:28:24 51°18.076 2°52.145 358.2 14.6 353 11.6
2002-11-28 08:28:28 51°18.092 2°52.14 358.3 14.6 352.5 11.3
2002-11-28 08:28:34 51°18.116 2°52.137 359.2 14.6 354 11.4
2002-11-28 08:28:38 51°18.132 2°52.132 359 14.6 353 11.7
2002-11-28 08:28:44 51°18.156 2°52.128 359.5 14.6 353.5 11.6
2002-11-28 08:28:48 51°18.172 2°52.126 359.2 14.6 353.7 11.7
2002-11-28 08:28:54 51°18.196 2°52.122 359.5 14.5 354.1 -999
2002-11-28 08:28:59 51°18.216 2°52.119 359.8 14.6 354.4 12.1
2002-11-28 08:29:04 51°18.237 2°52.115 359.7 14.6 353.8 11.3
2002-11-28 08:29:08 51°18.253 2°52.113 359.3 14.6 354 12
2002-11-28 08:29:15 51°18.281 2°52.108 359 14.6 353.5 12
2002-11-28 08:29:19 51°18.297 2°52.105 358.7 14.5 353.7 11.6
2002-11-28 08:29:24 51°18.317 2°52.101 358.5 14.5 353.4 12.2
2002-11-28 08:29:28 51°18.333 2°52.098 358.8 14.6 353.5 12.2
2002-11-28 08:29:34 51°18.357 2°52.093 359.2 14.6 353.4 12.3
2002-11-28 08:29:38 51°18.373 2°52.091 359 14.6 353.6 11.8
2002-11-28 08:29:44 51°18.397 2°52.086 359 14.6 353.7 12.1
2002-11-28 08:29:48 51°18.414 2°52.083 359.2 14.6 353.4 12
2002-11-28 08:29:52 51°18.43 2°52.081 359.2 14.6 353.7 12.6
2002-11-28 08:29:59 51°18.458 2°52.075 358.8 14.6 353.3 12.6
2002-11-28 08:30:04 51°18.478 2°52.072 359.2 14.6 353.7 12.5
2002-11-28 08:30:08 51°18.494 2°52.069 359 14.6 353.5 12.6
2002-11-28 08:30:14 51°18.518 2°52.065 359.3 14.6 354.1 12.6
2002-11-28 08:30:18 51°18.534 2°52.062 359.2 14.6 353.7 12.8
2002-11-28 08:30:24 51°18.558 2°52.058 359 14.6 354.1 12.9
2002-11-28 08:30:28 51°18.574 2°52.054 359 14.6 353.1 12.3
2002-11-28 08:30:34 51°18.599 2°52.05 358.5 14.6 353.6 13
2002-11-28 08:30:38 51°18.615 2°52.047 358.7 14.6 353.4 13.3
2002-11-28 08:30:44 51°18.639 2°52.043 358.8 14.6 353.3 13.3
2002-11-28 08:30:48 51°18.655 2°52.04 358.8 14.6 353.3 13
2002-11-28 08:30:54 51°18.679 2°52.035 358.5 14.6 353.5 13.7
2002-11-28 08:30:58 51°18.695 2°52.032 358.8 14.6 353.2 13.4
2002-11-28 08:31:04 51°18.719 2°52.028 359 14.6 353.7 13.4
2002-11-28 08:31:08 51°18.735 2°52.025 359 14.6 353.4 13.9
2002-11-28 08:31:14 51°18.759 2°52.02 359 14.6 353.5 13.9
2002-11-28 08:31:19 51°18.779 2°52.016 358.3 14.6 353.2 14
2002-11-28 08:31:24 51°18.799 2°52.013 358.2 14.5 353.1 14.3
2002-11-28 08:31:29 51°18.819 2°52.008 357.8 14.5 352.8 14.3
2002-11-28 08:31:34 51°18.839 2°52.003 358.3 14.5 352.5 14.3
2002-11-28 08:31:38 51°18.855 2°52.001 358.8 14.5 353 14.5
2002-11-28 08:31:45 51°18.883 2°51.996 358.5 14.5 353 14.4
2002-11-28 08:31:48 51°18.895 2°51.995 359 14.5 354 14.4
2002-11-28 08:31:54 51°18.919 2°51.989 358.7 14.5 353.1 14.7
2002-11-28 08:31:58 51°18.935 2°51.987 359 14.5 353.8 13.8
2002-11-28 08:32:04 51°18.959 2°51.982 358.8 14.6 353.1 14.9
2002-11-28 08:32:08 51°18.975 2°51.98 358.8 14.5 353.6 15
2002-11-28 08:32:14 51°18.999 2°51.975 358.8 14.5 353.6 15
2002-11-28 08:32:19 51°19.019 2°51.971 358.7 14.5 353.5 15.2
2002-11-28 08:32:25 51°19.043 2°51.968 358.8 14.5 353.8 15.1
2002-11-28 08:32:29 51°19.059 2°51.965 359.3 14.6 354.1 15.2
2002-11-28 08:32:35 51°19.084 2°51.961 359 14.6 354.4 15.2
2002-11-28 08:32:38 51°19.095 2°51.959 358.8 14.6 353.6 15.5
2002-11-28 08:32:45 51°19.124 2°51.954 359.3 14.6 354.6 15.6
2002-11-28 08:32:49 51°19.14 2°51.951 359 14.6 353.6 15.4
2002-11-28 08:32:55 51°19.164 2°51.947 359.2 14.6 354.4 15.4
2002-11-28 08:32:58 51°19.176 2°51.945 359.2 14.5 353.7 15.8
2002-11-28 08:33:05 51°19.204 2°51.942 0.8 14.5 355.1 15.5
2002-11-28 08:33:09 51°19.22 2°51.939 1 14.6 355.3 16.2
2002-11-28 08:33:14 51°19.24 2°51.938 1.7 14.5 356.1 15.8
2002-11-28 08:33:18 51°19.256 2°51.937 1.8 14.6 356.7 15.9
2002-11-28 08:33:25 51°19.284 2°51.934 1.8 14.6 356.3 15.6
2002-11-28 08:33:28 51°19.297 2°51.933 2.2 14.6 356.8 16
2002-11-28 08:33:34 51°19.321 2°51.93 1.8 14.6 356.3 16.4
2002-11-28 08:33:38 51°19.337 2°51.929 2.5 14.5 356.9 16.1
2002-11-28 08:33:44 51°19.361 2°51.926 2 14.5 356.9 16.4
2002-11-28 08:33:48 51°19.377 2°51.925 2.2 14.5 356.6 16.5
2002-11-28 08:33:54 51°19.401 2°51.923 2.2 14.5 357.5 16.5
2002-11-28 08:33:58 51°19.417 2°51.92 1.7 14.5 356.2 16.3
2002-11-28 08:34:04 51°19.442 2°51.92 2.5 14.5 357.5 16.3
2002-11-28 08:34:09 51°19.462 2°51.917 1.2 14.5 355.9 16.6
2002-11-28 08:34:12 51°19.474 2°51.917 2.2 14.6 357.2 16.7
2002-11-28 08:34:18 51°19.498 2°51.914 2.2 14.6 356.5 16.4
2002-11-28 08:34:24 51°19.522 2°51.912 2.3 14.6 356.5 16.5
2002-11-28 08:34:28 51°19.538 2°51.91 2.2 14.5 356.5 16
2002-11-28 08:34:34 51°19.563 2°51.908 2 14.5 356.8 16.7
2002-11-28 08:34:38 51°19.579 2°51.906 1.8 14.6 356.3 16.5
2002-11-28 08:34:44 51°19.603 2°51.903 1.3 14.6 356.3 16.6
2002-11-28 08:34:48 51°19.619 2°51.902 1.5 14.6 356 16.7
2002-11-28 08:34:54 51°19.643 2°51.899 1.5 14.5 356.1 16.7
2002-11-28 08:34:58 51°19.659 2°51.897 1.7 14.5 356 16.2
2002-11-28 08:35:04 51°19.683 2°51.896 1.7 14.5 356.5 16.4
2002-11-28 08:35:08 51°19.7 2°51.894 1.7 14.5 356.5 16
2002-11-28 08:35:14 51°19.724 2°51.893 2.5 14.5 357.1 16.6
2002-11-28 08:35:19 51°19.744 2°51.891 2.5 14.6 357.1 16.6
2002-11-28 08:35:24 51°19.764 2°51.888 1.8 14.6 356.7 16.6
2002-11-28 08:35:28 51°19.78 2°51.887 2.3 14.5 357.4 16.7
2002-11-28 08:35:34 51°19.804 2°51.884 2.2 14.5 356.8 16.6
2002-11-28 08:35:38 51°19.82 2°51.883 2.5 14.5 357 16.3
2002-11-28 08:35:44 51°19.845 2°51.881 2.2 14.5 356.7 16.3
2002-11-28 08:35:48 51°19.861 2°51.88 1.8 14.6 357.1 16.6
2002-11-28 08:35:54 51°19.885 2°51.879 2.7 14.6 357.1 16.6
2002-11-28 08:35:58 51°19.901 2°51.878 3.5 14.5 358.5 16.4
2002-11-28 08:36:04 51°19.926 2°51.877 4 14.6 358.7 16.5
2002-11-28 08:36:08 51°19.942 2°51.878 4 14.6 359.3 15.8
2002-11-28 08:36:12 51°19.958 2°51.877 4.5 14.6 359.4 16.3
2002-11-28 08:36:18 51°19.982 2°51.876 4.7 14.6 359.3 15.7
2002-11-28 08:36:25 51°20.011 2°51.876 4.8 14.7 359.5 16
2002-11-28 08:36:28 51°20.023 2°51.876 5.2 14.6 359.7 16.4
2002-11-28 08:36:34 51°20.047 2°51.877 5.8 14.6 0.4 16
2002-11-28 08:36:38 51°20.064 2°51.877 5.5 14.7 0.5 16
2002-11-28 08:36:45 51°20.092 2°51.876 4.7 14.7 359.6 16.1
2002-11-28 08:36:48 51°20.104 2°51.877 5.5 14.6 359.5 15.5
2002-11-28 08:36:54 51°20.128 2°51.876 5.2 14.5 359.3 15.4
2002-11-28 08:36:58 51°20.144 2°51.876 4.5 14.6 359.5 15.2
2002-11-28 08:37:04 51°20.169 2°51.876 4.3 14.6 359.2 15.2
2002-11-28 08:37:09 51°20.189 2°51.875 4.7 14.5 359.1 14.9
2002-11-28 08:37:14 51°20.209 2°51.875 4.8 14.6 359.4 14.8
2002-11-28 08:37:18 51°20.225 2°51.874 5.2 14.6 359.3 14.8
2002-11-28 08:37:24 51°20.249 2°51.874 5.2 14.6 359.4 14.9
2002-11-28 08:37:28 51°20.266 2°51.875 5.3 14.6 359.9 14.8
2002-11-28 08:37:34 51°20.29 2°51.874 4.7 14.6 359.5 14.4
2002-11-28 08:37:38 51°20.306 2°51.874 4.5 14.5 359.9 13.9
2002-11-28 08:37:44 51°20.33 2°51.873 4.3 14.5 359.4 13.7
2002-11-28 08:37:48 51°20.346 2°51.873 4.5 14.5 359.6 14.2
2002-11-28 08:37:54 51°20.37 2°51.872 4.3 14.5 359.2 14.4
2002-11-28 08:37:58 51°20.386 2°51.872 4.5 14.5 359.2 14.4
2002-11-28 08:38:04 51°20.411 2°51.871 4.5 14.5 358.8 14.7
2002-11-28 08:38:08 51°20.427 2°51.871 4.5 14.5 359.4 14.6
2002-11-28 08:38:14 51°20.451 2°51.87 4.7 14.5 358.9 14.5
2002-11-28 08:38:19 51°20.471 2°51.87 4.8 14.4 359.5 14.4
2002-11-28 08:38:25 51°20.495 2°51.87 5.2 14.5 359.7 14.4
2002-11-28 08:38:29 51°20.511 2°51.869 5 14.5 359.8 14.5
2002-11-28 08:38:34 51°20.531 2°51.869 5.2 14.5 359.6 14.4
2002-11-28 08:38:38 51°20.547 2°51.869 5.2 14.5 359.8 14.4
2002-11-28 08:38:44 51°20.572 2°51.868 4.3 14.6 359.3 14.5
2002-11-28 08:38:49 51°20.592 2°51.869 4.8 14.5 359.8 14.2
2002-11-28 08:38:53 51°20.608 2°51.869 5.2 14.5 0.1 14.4
2002-11-28 08:38:59 51°20.632 2°51.869 5.5 14.5   14.8
2002-11-28 08:39:05 51°20.656 2°51.868 5 14.5 359.9 14.9
2002-11-28 08:39:09 51°20.672 2°51.868 4.8 14.4 359.9 14.9
2002-11-28 08:39:14 51°20.692 2°51.868 4.8 14.5 359.9 15.1
2002-11-28 08:39:18 51°20.709 2°51.869 4.7 14.6 0.1 15.2
2002-11-28 08:39:24 51°20.733 2°51.868 4.8 14.6 359.9 15
2002-11-28 08:39:29 51°20.753 2°51.867 4.5 14.6 359.4 15.4
2002-11-28 08:39:34 51°20.774 2°51.867 4.5 14.6 358.9 15.3
2002-11-28 08:39:38 51°20.79 2°51.866 4.5 14.6 359.3 15.5
2002-11-28 08:39:45 51°20.818 2°51.866 4.5 14.6 359.1 15.6
2002-11-28 08:39:49 51°20.835 2°51.865 4.7 14.7   15.9
2002-11-28 08:39:54 51°20.855 2°51.866 5 14.7 359.5 15.8
2002-11-28 08:39:58 51°20.871 2°51.866 5.2 14.6 359.8 16
2002-11-28 08:40:05 51°20.899 2°51.865 4.2 14.7 359.3 16.6
2002-11-28 08:40:09 51°20.916 2°51.864 4 14.6 359.3 16.8
2002-11-28 08:40:14 51°20.936 2°51.864 4.2 14.6 359 17
2002-11-28 08:40:19 51°20.956 2°51.864 4.5 14.6 359.9 17.4
2002-11-28 08:40:25 51°20.981 2°51.864 4.2 14.7 359.4 17.6
2002-11-28 08:40:29 51°20.997 2°51.864 4.7 14.7 359.8 17.5
2002-11-28 08:40:35 51°21.021 2°51.864 4.7 14.6 359.8 17.8
2002-11-28 08:40:39 51°21.037 2°51.864 4.7 14.6 0.2 17.8
2002-11-28 08:40:44 51°21.058 2°51.864 4.5 14.7 0.3 17.9
2002-11-28 08:40:48 51°21.074 2°51.864 4.7 14.6   18.2
2002-11-28 08:40:55 51°21.102 2°51.865 5.8 14.6 0.7 18.3
2002-11-28 08:40:59 51°21.119 2°51.864 4.8 14.7 0.3 18.5
2002-11-28 08:41:05 51°21.143 2°51.864 4 14.7 359.6 17.5
2002-11-28 08:41:09 51°21.159 2°51.865 5 14.7 0.3 18.8
2002-11-28 08:41:15 51°21.184 2°51.864 4.3 14.6 359.8 19.4
2002-11-28 08:41:19 51°21.2 2°51.865 4.7 14.7 0.3 19.5
2002-11-28 08:41:25 51°21.224 2°51.864 4.7 14.7 359.9 19.6
2002-11-28 08:41:29 51°21.241 2°51.866 5 14.7 0.9 19.8
2002-11-28 08:41:34 51°21.261 2°51.865 4.8 14.7 0.6 19.6
2002-11-28 08:41:39 51°21.282 2°51.867 5.3 14.8 1 20.3
2002-11-28 08:41:45 51°21.306 2°51.866 4.3 14.8 0.7 20.2
2002-11-28 08:41:48 51°21.319 2°51.867 4.3 14.8 0.2 20.8
2002-11-28 08:41:54 51°21.343 2°51.866 4.2 14.8 359.9 21.1
2002-11-28 08:41:59 51°21.364 2°51.866 4 14.7 359.7 21.2
2002-11-28 08:42:04 51°21.384 2°51.866 4.5 14.8   21.6
2002-11-28 08:42:08 51°21.401 2°51.866 4.7 14.8   21.8
2002-11-28 08:42:14 51°21.425 2°51.867 5 14.7 0.7 22.1
2002-11-28 08:42:18 51°21.441 2°51.867 5 14.7 0.7 21.8
2002-11-28 08:42:24 51°21.466 2°51.868 5.3 14.7 1.3 22.4
2002-11-28 08:42:28 51°21.482 2°51.868 5 14.7 1.1 22.5
2002-11-28 08:42:34 51°21.506 2°51.869 5.2 14.7 1 22.8
2002-11-28 08:42:38 51°21.522 2°51.869 5 14.6 0.7 22.9
2002-11-28 08:42:44 51°21.547 2°51.869 5 14.6 1 23
2002-11-28 08:42:48 51°21.563 2°51.869 4.5 14.6 0.5 22.9
2002-11-28 08:42:54 51°21.588 2°51.87 4.3 14.7 0.5 23.3
2002-11-28 08:42:58 51°21.604 2°51.87 4.8 14.7 0.9 23.4
2002-11-28 08:43:04 51°21.628 2°51.87 4.8 14.8 0.4 23.4
2002-11-28 08:43:08 51°21.645 2°51.871 4 14.7 0.6 23.9
2002-11-28 08:43:14 51°21.669 2°51.872 4.8 14.7 0.9 24
2002-11-28 08:43:18 51°21.685 2°51.872 4.8 14.7 0.8 24.2
2002-11-28 08:43:24 51°21.71 2°51.873 5.2 14.7 1.3 23.9
2002-11-28 08:43:28 51°21.726 2°51.873 4.7 14.8 0.7 24.5
2002-11-28 08:43:34 51°21.751 2°51.874 4.5 14.9 1.2 24.7
2002-11-28 08:43:38 51°21.767 2°51.875 4.3 14.8 1.2 24.3
2002-11-28 08:43:44 51°21.792 2°51.876 5.8 14.8 1.4 24.7
2002-11-28 08:43:49 51°21.812 2°51.879 7.7 14.9 3.8 24.7
2002-11-28 08:43:54 51°21.833 2°51.882 9 15 4.6 25
2002-11-28 08:43:59 51°21.853 2°51.887 10.3 15 6.3 24.6
2002-11-28 08:44:05 51°21.878 2°51.891 10.5 14.9 6.7 24.6
2002-11-28 08:44:09 51°21.894 2°51.895 11.5 14.9 7.8 24.7
2002-11-28 08:44:15 51°21.918 2°51.903 15 14.9 9.9 24.6
2002-11-28 08:44:19 51°21.935 2°51.91 18.2 15 13.3 24.8
2002-11-28 08:44:25 51°21.958 2°51.923 22.2 15 16.2 24.7
2002-11-28 08:44:29 51°21.974 2°51.933 24.8 14.9 19.3 24.5
2002-11-28 08:44:35 51°21.997 2°51.947 26 14.9 20.6 24.8
2002-11-28 08:44:38 51°22.008 2°51.955 27.3 15 22.3 24.7
2002-11-28 08:44:45 51°22.034 2°51.975 30.2 14.9 23.7 24.7
2002-11-28 08:44:48 51°22.046 2°51.983 29 15 24.4 24.6
2002-11-28 08:44:54 51°22.068 2°52 30.8 15 25.4 24.4
2002-11-28 08:44:58 51°22.083 2°52.013 33.3 15 27.6 24.3
2002-11-28 08:45:04 51°22.104 2°52.033 35.7 15 28.7 24.3
2002-11-28 08:45:08 51°22.118 2°52.047 37.2 14.9 32 24
2002-11-28 08:45:14 51°22.138 2°52.069 39.2 14.8 32.7 24.4
2002-11-28 08:45:19 51°22.154 2°52.089 43.3 14.7 36.6 23.9
2002-11-28 08:45:25 51°22.173 2°52.116 46.5 14.8 39.9 24.2
2002-11-28 08:45:29 51°22.185 2°52.134 49 14.9 42.8 24.6
2002-11-28 08:45:34 51°22.198 2°52.159 53.7 14.8 47.1 24.6
2002-11-28 08:45:38 51°22.21 2°52.178 53 14.9 46.9 24.5
2002-11-28 08:45:45 51°22.228 2°52.213 55 14.9 48 24.7
2002-11-28 08:45:48 51°22.236 2°52.229 58.7 14.8 50.9 24.6
2002-11-28 08:45:55 51°22.252 2°52.267 61.7 14.9 54 24.7
2002-11-28 08:45:59 51°22.261 2°52.289 63.5 15 55.8 24.6
2002-11-28 08:46:05 51°22.273 2°52.323 66.3 14.8 58.5 24
2002-11-28 08:46:09 51°22.282 2°52.346 67.8 14.8 59.7 24.6
2002-11-28 08:46:14 51°22.293 2°52.375 67.5 14.9 59.6 24.2
2002-11-28 08:46:18 51°22.301 2°52.398 68.5 14.9 60.2 24.4
2002-11-28 08:46:25 51°22.315 2°52.438 68 14.9 60.4 24.4
2002-11-28 08:46:29 51°22.324 2°52.461 66.5 15.1 59.3 24.4
2002-11-28 08:46:34 51°22.335 2°52.489 65.8 15.1 58.7 24.1
2002-11-28 08:46:38 51°22.344 2°52.511 66.3 15 58.5 23.8
2002-11-28 08:46:45 51°22.359 2°52.551 65.7 15.1 58.4 23.8
2002-11-28 08:46:49 51°22.369 2°52.574 64.7 15.2 57.3 23.9
2002-11-28 08:46:54 51°22.379 2°52.601 65 15 57.7 23.8
2002-11-28 08:46:59 51°22.39 2°52.629 65.2 14.8 57.7 23.9
2002-11-28 08:47:05 51°22.404 2°52.662 63.8 14.9 56.9 23.7
2002-11-28 08:47:08 51°22.411 2°52.678 63.2 15 55.8 23.9
2002-11-28 08:47:14 51°22.424 2°52.711 64.2 14.8 56.5 23.3
2002-11-28 08:47:18 51°22.433 2°52.733 64.8 14.7 57.1 23.8
2002-11-28 08:47:25 51°22.449 2°52.772 63.7 14.9 57 23.4
2002-11-28 08:47:29 51°22.459 2°52.793 63.2 15 55.8 23.2
2002-11-28 08:47:34 51°22.47 2°52.82 63.5 14.9 55.6 23.4
2002-11-28 08:47:38 51°22.48 2°52.842 62.5 14.9 54.9 23.5
2002-11-28 08:47:44 51°22.495 2°52.874 60.3 15.1 53.5 23.5
2002-11-28 08:47:48 51°22.505 2°52.896 61.8 15 53.9 23.7
2002-11-28 08:47:54 51°22.519 2°52.929 62.5 14.9 55.3 23
2002-11-28 08:47:59 51°22.531 2°52.955 61.5 15 54.4 23.4
2002-11-28 08:48:05 51°22.545 2°52.988 61.5 15 54.6 23.5
2002-11-28 08:48:09 51°22.555 2°53.009 61.5 14.8 54.1 23.3
2002-11-28 08:48:14 51°22.567 2°53.036 61.7 14.9 54.4 23.5
2002-11-28 08:48:18 51°22.577 2°53.058 60.8 15 53.9 23.2
2002-11-28 08:48:25 51°22.594 2°53.095 61.2 15 53.7 23.4
2002-11-28 08:48:29 51°22.603 2°53.116 62 14.7 54.6 23.4
2002-11-28 08:48:34 51°22.615 2°53.143 62.3 14.7 55.1 23.1
2002-11-28 08:48:39 51°22.627 2°53.17 61.2 14.9 54.4 23.4
2002-11-28 08:48:45 51°22.642 2°53.202 61.3 15 54.1 23.4
2002-11-28 08:48:49 51°22.651 2°53.224 61.3 14.9 54.4 23.4
2002-11-28 08:48:54 51°22.663 2°53.251 61.7 14.8 54.7 23.3
2002-11-28 08:48:58 51°22.672 2°53.273 62 14.9 55.2 22.8
2002-11-28 08:49:05 51°22.689 2°53.311 62.3 14.9 55.5 22.9
2002-11-28 08:49:08 51°22.696 2°53.327 62.8 14.8 55.9 23.3
2002-11-28 08:49:14 51°22.71 2°53.359 62.7 14.7 55.7 23.4
2002-11-28 08:49:18 51°22.72 2°53.38 60.8 15 54.3 23.3
2002-11-28 08:49:24 51°22.734 2°53.413 61.8 14.9 54.8 23.3
2002-11-28 08:49:29 51°22.746 2°53.439 61.3 14.8 54.3 22.9
2002-11-28 08:49:34 51°22.758 2°53.466 60.2 14.9 53.8 22.7
2002-11-28 08:49:38 51°22.769 2°53.487 59.5 15 53.1 23.4
2002-11-28 08:49:44 51°22.783 2°53.519 60.3 15 53.2 23.2
2002-11-28 08:49:49 51°22.796 2°53.546 60.3 15 53.6 23.5
2002-11-28 08:49:54 51°22.809 2°53.572 59.5 15.1 53.2 23
2002-11-28 08:49:59 51°22.821 2°53.599 60.5 15.1 53.3 23.2
2002-11-28 08:50:04 51°22.834 2°53.626 60.3 15.1 53.5 22.5
2002-11-28 08:50:09 51°22.846 2°53.653 60.5 15.1 53.2 23.1
2002-11-28 08:50:14 51°22.858 2°53.68 60.8 15 53.9 22.6
2002-11-28 08:50:19 51°22.87 2°53.706 60.3 15 53.5 21.9
2002-11-28 08:50:25 51°22.886 2°53.739 60.2 15.1 54 22.7
2002-11-28 08:50:29 51°22.896 2°53.759 59.7 14.9 52.4 21.8
2002-11-28 08:50:35 51°22.91 2°53.792 60.5 14.8 53.8 22.6
2002-11-28 08:50:39 51°22.921 2°53.813 59.5 15 52.6 21.7
2002-11-28 08:50:44 51°22.933 2°53.84 59.3 15.1 53 20.5
2002-11-28 08:50:49 51°22.946 2°53.865 58.8 15 51.9 17.2
2002-11-28 08:50:54 51°22.958 2°53.892 60 15 52.5 21.7
2002-11-28 08:50:58 51°22.969 2°53.913 60.3 15.1 52.8 19.7
2002-11-28 08:51:05 51°22.986 2°53.951 60.3 15.2 53.2 22.8
2002-11-28 08:51:09 51°22.997 2°53.972 59.8 15 52.5 22.3
2002-11-28 08:51:14 51°23.009 2°54 60 15 53 22.2
2002-11-28 08:51:18 51°23.02 2°54.021 59 15.2 52.1 21.7
2002-11-28 08:51:25 51°23.038 2°54.058 58.7 15.2 52.1 20
2002-11-28 08:51:29 51°23.048 2°54.079 59.3 15 52 23.1
2002-11-28 08:51:35 51°23.063 2°54.111 59.8 14.9 52.9 22.4
2002-11-28 08:51:39 51°23.073 2°54.132 60.3 15 53.4 22.1
2002-11-28 08:51:45 51°23.088 2°54.164 60 15 53.2 22
2002-11-28 08:51:49 51°23.097 2°54.185 60.2 15 53.2 21.6
2002-11-28 08:51:55 51°23.112 2°54.216 60.7 14.9 53.4 22
2002-11-28 08:51:59 51°23.122 2°54.238 60 14.9 53 21.2
2002-11-28 08:52:05 51°23.137 2°54.27 60 15 52.6 20.2
2002-11-28 08:52:09 51°23.148 2°54.29 59.5 15 52.4 21.4
2002-11-28 08:52:14 51°23.16 2°54.316 59 14.9 51.8 21
2002-11-28 08:52:18 51°23.171 2°54.337 59.2 14.9 52 19.7
2002-11-28 08:52:25 51°23.189 2°54.373 58.3 15 51.7 20.4
2002-11-28 08:52:29 51°23.199 2°54.393 58.3 15 51.2 19
2002-11-28 08:52:35 51°23.214 2°54.424 58.5 14.8 50.9 20.7
2002-11-28 08:52:38 51°23.222 2°54.44 59.3 14.8 51.6 19
2002-11-28 08:52:44 51°23.237 2°54.471 60 14.9 52.5 20.6
2002-11-28 08:52:48 51°23.247 2°54.492 59.7 14.9 52.3 19.6
2002-11-28 08:52:54 51°23.262 2°54.523 59.8 14.8 52.2 20.2
2002-11-28 08:52:58 51°23.272 2°54.545 60.8 14.7 53.4 20
2002-11-28 08:53:04 51°23.287 2°54.576 59.2 14.9 52.6 20.1
2002-11-28 08:53:08 51°23.297 2°54.597 59.5 14.8 52.5 20.2
2002-11-28 08:53:14 51°23.311 2°54.628 60.8 14.6 53 17.8
2002-11-28 08:53:18 51°23.321 2°54.649 60.8 14.8 53.6 19.6
2002-11-28 08:53:24 51°23.337 2°54.681 60 15 52.9 20.4
2002-11-28 08:53:28 51°23.346 2°54.702 60.5 14.8 53.4 19.6
2002-11-28 08:53:34 51°23.361 2°54.734 61.2 14.8 53.7 20.2
2002-11-28 08:53:38 51°23.371 2°54.755 59.2 14.9 52.8 20
2002-11-28 08:53:44 51°23.386 2°54.786 58.8 14.8 51.7 19.5
2002-11-28 08:53:48 51°23.396 2°54.806 59.8 14.7 52.4 20.1
2002-11-28 08:53:54 51°23.411 2°54.838 60.2 14.8 53 18.7
2002-11-28 08:53:59 51°23.424 2°54.864 59.2 14.8 52.2 19.8
2002-11-28 08:54:04 51°23.436 2°54.891 59.8 14.9 52.9 19.5
2002-11-28 08:54:08 51°23.446 2°54.911 59 14.9 52.5 20.2
2002-11-28 08:54:14 51°23.46 2°54.942 60.7 14.6 53.2 17.7
2002-11-28 08:54:18 51°23.47 2°54.963 60.8 14.7 53.6 18.5
2002-11-28 08:54:24 51°23.486 2°54.995 58.5 15 52.7 20.1
2002-11-28 08:54:28 51°23.496 2°55.015 58.8 14.7 51.9 20.4
2002-11-28 08:54:34 51°23.51 2°55.046 60.5 14.4 52.7 20
2002-11-28 08:54:39 51°23.522 2°55.073 60.7 14.9 53.5 17.4
2002-11-28 08:54:44 51°23.536 2°55.099 58.2 15.2 51.9 20
2002-11-28 08:54:48 51°23.545 2°55.12 59.7 14.8 52.4 20.5
2002-11-28 08:54:54 51°23.56 2°55.15 60.5 14.6 52 20
2002-11-28 08:54:58 51°23.571 2°55.173 58.3 15.1 52.4 17.3
2002-11-28 08:55:04 51°23.588 2°55.201 55 15.1 48.5 19.6
2002-11-28 08:55:08 51°23.598 2°55.222 56.5 14.8 49.8 17.5
2002-11-28 08:55:14 51°23.615 2°55.25 54.3 14.5 48.3 20
2002-11-28 08:55:18 51°23.626 2°55.269 53.7 14.8 47.2 19.9
2002-11-28 08:55:24 51°23.643 2°55.298 52.7 14.9 46.6 18.6
2002-11-28 08:55:28 51°23.655 2°55.316 52.5 14.8 45.4 18.5
2002-11-28 08:55:34 51°23.672 2°55.344 52.3 14.7 45.7 20.5
2002-11-28 08:55:39 51°23.687 2°55.366 50 14.8 43.6 19.5
2002-11-28 08:55:44 51°23.703 2°55.388 47.5 14.8 41.4 19.6
2002-11-28 08:55:48 51°23.715 2°55.405 47.7 14.8 40.7 20.1
2002-11-28 08:55:54 51°23.734 2°55.43 45.8 14.8 40.4 17.7
2002-11-28 08:55:59 51°23.749 2°55.451 46.3 14.7 39.6 19.4
2002-11-28 08:56:04 51°23.765 2°55.472 46.7 14.8 39.9 18.6
2002-11-28 08:56:09 51°23.782 2°55.493 45.3 14.9 38.9 20.2
2002-11-28 08:56:13 51°23.795 2°55.509 42.8 14.8 37.6 19.6
2002-11-28 08:56:19 51°23.815 2°55.531 41.3 14.7 35.4 19.5
2002-11-28 08:56:25 51°23.836 2°55.551 39.7 14.8 33.9 19.3
2002-11-28 08:56:29 51°23.85 2°55.566 37.7 14.9 32 17.9
2002-11-28 08:56:35 51°23.872 2°55.583 35 14.9 29.1 19.3
2002-11-28 08:56:38 51°23.883 2°55.592 33.2 14.8 27.3 19.3
2002-11-28 08:56:44 51°23.906 2°55.606 28.5 14.8 24.4 20.2
2002-11-28 08:56:48 51°23.921 2°55.616 27 14.8 21.5 20.8
2002-11-28 08:56:55 51°23.948 2°55.63 24.3 14.7 19.8 20.3
2002-11-28 08:56:59 51°23.964 2°55.639 23 14.7 18 19.9
2002-11-28 08:57:04 51°23.983 2°55.647 21 14.7 16.3 20.8
2002-11-28 08:57:09 51°24.003 2°55.657 21 14.8 16.2 21
2002-11-28 08:57:15 51°24.027 2°55.666 19.8 14.8 15 21.4
2002-11-28 08:57:19 51°24.043 2°55.673 19.5 14.8 15 21.8
2002-11-28 08:57:24 51°24.063 2°55.681 20.7 14.8 14 21.9
2002-11-28 08:57:28 51°24.079 2°55.687 17.3 14.8 13.2 22.1
2002-11-28 08:57:34 51°24.103 2°55.694 16.3 14.7 11.2 22.1
2002-11-28 08:57:38 51°24.119 2°55.698 14.2 14.6 9.7 22.4
2002-11-28 08:57:45 51°24.147 2°55.705 12.8 14.6 8.4 22.2
2002-11-28 08:57:48 51°24.159 2°55.706 11.2 14.6 7.3 22.4
2002-11-28 08:57:54 51°24.183 2°55.71 11.3 14.6 6.6 22.8
2002-11-28 08:57:58 51°24.199 2°55.713 11.5 14.7 6.6 23.1
2002-11-28 08:58:04 51°24.224 2°55.717 10.7 14.8 5.9 23.2
2002-11-28 08:58:08 51°24.24 2°55.72 10.5 14.8 6.5 23.5
2002-11-28 08:58:14 51°24.265 2°55.725 10.7 14.8 6.1 23.3
2002-11-28 08:58:19 51°24.285 2°55.727 10 14.8 5.6 23.9
2002-11-28 08:58:24 51°24.305 2°55.731 10 14.8 5.6 23.7
2002-11-28 08:58:28 51°24.322 2°55.734 10.8 14.8 6.3 23.9
2002-11-28 08:58:34 51°24.346 2°55.738 11.3 14.7 6.3 24.1
2002-11-28 08:58:38 51°24.362 2°55.741 11.3 14.8 6.9 24.3
2002-11-28 08:58:44 51°24.387 2°55.746 11 14.8 6.6 24.5
2002-11-28 08:58:48 51°24.403 2°55.749 11.5 14.8 7.1 24.4
2002-11-28 08:58:54 51°24.428 2°55.753 10.3 14.8 6.5 24.5
2002-11-28 08:58:58 51°24.444 2°55.755 9.5 14.8 5.2 24.8
2002-11-28 08:59:04 51°24.468 2°55.758 9.2 14.8 5.7 24.6
2002-11-28 08:59:08 51°24.484 2°55.761 9.7 14.8 4.9 24.8
2002-11-28 08:59:14 51°24.509 2°55.764 8.7 14.8 4.9 24.6
2002-11-28 08:59:19 51°24.529 2°55.766 8.8 14.7 4.1 24.4
2002-11-28 08:59:24 51°24.55 2°55.769 9 14.7 4.8 24.7
2002-11-28 08:59:28 51°24.566 2°55.771 9 14.7 4.6 24.6
2002-11-28 08:59:34 51°24.59 2°55.775 9.8 14.7 5.2 24.3
2002-11-28 08:59:38 51°24.606 2°55.777 9.3 14.6 5.2 23.7
2002-11-28 08:59:44 51°24.631 2°55.782 10 14.7 6.1 23.7
2002-11-28 08:59:48 51°24.647 2°55.783 10.5 14.7 5.8 23.2
2002-11-28 08:59:54 51°24.672 2°55.788 9.8 14.8 5.8 23.4
2002-11-28 08:59:58 51°24.688 2°55.789 9 14.9 4.6 23.9
2002-11-28 09:00:04 51°24.712 2°55.794 9.3 14.8 5.4 23.8
2002-11-28 09:00:08 51°24.729 2°55.794 8 14.8 3.5 24.1
2002-11-28 09:00:14 51°24.753 2°55.797 7.5 14.8 4.3 23.9
2002-11-28 09:00:18 51°24.77 2°55.797 7 14.8 2.5 24
2002-11-28 09:00:25 51°24.798 2°55.801 7.5 14.7 3.3 24.5
2002-11-28 09:00:28 51°24.81 2°55.801 6 14.7 2 24.3
2002-11-28 09:00:34 51°24.835 2°55.803 6.7 14.7 2.4 24.5
2002-11-28 09:00:39 51°24.855 2°55.803 5.8 14.7 1.3 24.7
2002-11-28 09:00:44 51°24.876 2°55.806 6.7 14.7 2.7 24.9
2002-11-28 09:00:48 51°24.892 2°55.806 6.5 14.7 2.3 24.5
2002-11-28 09:00:54 51°24.916 2°55.808 6.7 14.7 2.8 24.6
2002-11-28 09:00:59 51°24.937 2°55.81 6.7 14.8 2.8 24.5
2002-11-28 09:01:04 51°24.957 2°55.81 5 14.7 1.7 24.3
2002-11-28 09:01:08 51°24.974 2°55.813 7.2 14.8 3.1 24.1
2002-11-28 09:01:12 51°24.99 2°55.813 6.5 14.8 1.9 23.8
2002-11-28 09:01:18 51°25.014 2°55.817 6.5 14.8 3.5 23.2
2002-11-28 09:01:24 51°25.039 2°55.817 6.8 14.8 2.9 23.2
2002-11-28 09:01:28 51°25.056 2°55.819 7 14.9 3.1 22
2002-11-28 09:01:34 51°25.08 2°55.82 6 14.9 2.2 22.2
2002-11-28 09:01:39 51°25.101 2°55.823 7 14.8 3.1 22.1
2002-11-28 09:01:45 51°25.125 2°55.824 6.8 14.8 3 21.8
2002-11-28 09:01:48 51°25.137 2°55.827 7.8 14.8 4 21.6
2002-11-28 09:01:52 51°25.154 2°55.828 7.7 14.7 3.8 21.2
2002-11-28 09:01:58 51°25.178 2°55.83 6.8 14.7 3.6 20.7
2002-11-28 09:02:04 51°25.203 2°55.832 7.3 14.7 3.2 20.2
2002-11-28 09:02:08 51°25.219 2°55.835 7.5 14.7 3.7 19.7
2002-11-28 09:02:14 51°25.243 2°55.837 7.3 14.8 3.4 18.9
2002-11-28 09:02:19 51°25.264 2°55.838 7 14.8 2.6 18.1
2002-11-28 09:02:24 51°25.284 2°55.84 6.8 14.8 2.7 17.9
2002-11-28 09:02:29 51°25.305 2°55.843 7.7 14.7 3.5 17.9
2002-11-28 09:02:34 51°25.325 2°55.844 7.2 14.7 2.9 17.5
2002-11-28 09:02:39 51°25.346 2°55.845 7.2 14.7 3.5 17.2
2002-11-28 09:02:44 51°25.367 2°55.847 7.3 14.8 3.6 16.8
2002-11-28 09:02:48 51°25.383 2°55.848 7.2 14.8 3.3 15.8
2002-11-28 09:02:54 51°25.408 2°55.851 7.7 14.7 3.2 15.2
2002-11-28 09:02:58 51°25.424 2°55.853 7.5 14.8 3.7 16.9
2002-11-28 09:03:04 51°25.448 2°55.855 8 14.7 3.5 16.9
2002-11-28 09:03:08 51°25.464 2°55.856 7.7 14.8 3.3 16.7
2002-11-28 09:03:14 51°25.489 2°55.858 6.5 14.9 2.5 17
2002-11-28 09:03:18 51°25.506 2°55.859 6.3 14.9 2.2 17.1
2002-11-28 09:03:24 51°25.53 2°55.862 7.2 14.8 2.8 17.1
2002-11-28 09:03:28 51°25.547 2°55.862 6.7 14.8 2.6 17
2002-11-28 09:03:34 51°25.571 2°55.865 7 14.9 3.1 16.8
2002-11-28 09:03:38 51°25.587 2°55.866 7.2 14.8 3.2 17.2
2002-11-28 09:03:44 51°25.612 2°55.869 7.7 14.7 3.2 17.5
2002-11-28 09:03:48 51°25.628 2°55.871 7.5 14.7 3.6 17.3
2002-11-28 09:03:52 51°25.644 2°55.872 7.5 14.7 3.8 17.2
2002-11-28 09:03:59 51°25.673 2°55.876 8.3 14.8 4.2 15.1
2002-11-28 09:04:04 51°25.694 2°55.877 7.5 14.9 3.8 15.2
2002-11-28 09:04:08 51°25.71 2°55.879 7.5 14.8 3.7 16.5
2002-11-28 09:04:14 51°25.734 2°55.883 8.7 14.8 4.5 17.4
2002-11-28 09:04:19 51°25.755 2°55.882 5.8 14.9 2 18
2002-11-28 09:04:24 51°25.776 2°55.885 6.7 14.9 2.5 18.3
2002-11-28 09:04:28 51°25.793 2°55.886 7 15 2.7 18.2
2002-11-28 09:04:35 51°25.822 2°55.889 7 15 2.8 18.6
2002-11-28 09:04:38 51°25.834 2°55.889 6.7 14.9 3 18.2
2002-11-28 09:04:44 51°25.858 2°55.89 6.3 14.8 1.9 18.5
2002-11-28 09:04:48 51°25.875 2°55.893 6.7 14.9 3.1 19.1
2002-11-28 09:04:54 51°25.899 2°55.895 8 14.8 3.1 18.5
2002-11-28 09:04:58 51°25.915 2°55.897 8.3 14.7 4.5 16.2
2002-11-28 09:05:05 51°25.944 2°55.899 7 14.7 3.1 18.5
2002-11-28 09:05:08 51°25.956 2°55.901 8.7 14.6 4.4 19.3
2002-11-28 09:05:14 51°25.98 2°55.904 8.8 14.6 4.1 19.5
2002-11-28 09:05:18 51°25.997 2°55.907 8.3 14.7 4.7 16.3
2002-11-28 09:05:23 51°26.017 2°55.908 8.2 14.8 3.7 17.9
2002-11-28 09:05:29 51°26.041 2°55.912 8.8 14.8 4.6 18.3
2002-11-28 09:05:34 51°26.062 2°55.914 8.3 14.8 4.3 18.9
2002-11-28 09:05:39 51°26.082 2°55.915 6.8 14.9 2.8 18.9
2002-11-28 09:05:44 51°26.103 2°55.918 7 14.9 2.9 19.6
2002-11-28 09:05:49 51°26.123 2°55.919 7.7 14.8 3.2 18.8
2002-11-28 09:05:52 51°26.136 2°55.921 7.2 14.8 3.3 19.1
2002-11-28 09:05:59 51°26.164 2°55.922 6.8 14.8 2.6 19.5
2002-11-28 09:06:05 51°26.189 2°55.924 6.8 14.9 2.2 19.9
2002-11-28 09:06:09 51°26.205 2°55.925 7.3 14.8 2.9 19.3
2002-11-28 09:06:14 51°26.226 2°55.928 7.8 14.8 3.6 19.8
2002-11-28 09:06:19 51°26.246 2°55.929 7.5 14.8 3.5 20.2
2002-11-28 09:06:24 51°26.267 2°55.932 7 14.8 3.9 20.5
2002-11-28 09:06:28 51°26.283 2°55.933 7.2 14.7 2.9 21
2002-11-28 09:06:34 51°26.307 2°55.936 8 14.7 3.9 21.2
2002-11-28 09:06:39 51°26.328 2°55.937 7.2 14.7 2.6 21.5
2002-11-28 09:06:44 51°26.348 2°55.941 8.3 14.6 4 22.1
2002-11-28 09:06:48 51°26.364 2°55.941 7.5 14.6 3.5 22.5
2002-11-28 09:06:52 51°26.38 2°55.943 7.5 14.5 4.1 22.8
2002-11-28 09:06:59 51°26.409 2°55.946 7.7 14.5 3.4 23.2
2002-11-28 09:07:05 51°26.432 2°55.949 8.2 14.5 3.8 23.2
2002-11-28 09:07:09 51°26.448 2°55.951 8.3 14.5 4.2 23.4
2002-11-28 09:07:14 51°26.469 2°55.955 9 14.5 4.9 23.4
2002-11-28 09:07:19 51°26.489 2°55.955 7 14.7 3.4 24
2002-11-28 09:07:24 51°26.509 2°55.959 8.5 14.6 4.9 24.1
2002-11-28 09:07:28 51°26.525 2°55.96 8 14.6 4.1 24.6
2002-11-28 09:07:34 51°26.549 2°55.963 7.3 14.6 3.6 24.5
2002-11-28 09:07:38 51°26.565 2°55.965 8.2 14.6 4.1 24.9
2002-11-28 09:07:45 51°26.594 2°55.966 7.2 14.6 3.4 25.1
2002-11-28 09:07:48 51°26.606 2°55.967 7 14.7 2.9 25.3
2002-11-28 09:07:55 51°26.635 2°55.971 7.7 14.7 3.6 25.6
2002-11-28 09:07:59 51°26.651 2°55.972 7.3 14.8 3.5 25.9
2002-11-28 09:08:05 51°26.675 2°55.974 7 14.8 3.1 26
2002-11-28 09:08:08 51°26.688 2°55.975 7.2 14.8 3.1 26.3
2002-11-28 09:08:14 51°26.712 2°55.977 7.5 14.8 2.5 26.4
2002-11-28 09:08:19 51°26.732 2°55.98 7.2 14.7 3.8 26.8
2002-11-28 09:08:23 51°26.748 2°55.98 6.8 14.6 2.6 26.9
2002-11-28 09:08:28 51°26.769 2°55.984 7.8 14.6 3.9 27.1
2002-11-28 09:08:34 51°26.793 2°55.986 8.2 14.7 3.8 27.1
2002-11-28 09:08:39 51°26.813 2°55.989 8.8 14.7 5 27.1
2002-11-28 09:08:45 51°26.838 2°55.992 8.8 14.6 4.6 27.1
2002-11-28 09:08:48 51°26.85 2°55.994 9.2 14.6 5.5 27.3
2002-11-28 09:08:52 51°26.866 2°55.995 8.5 14.6 4.5 27.9
2002-11-28 09:08:58 51°26.89 2°56 8 14.6 4.8 27.8
2002-11-28 09:09:04 51°26.914 2°56.003 9.2 14.6 4.9 28.2
2002-11-28 09:09:08 51°26.93 2°56.005 8.8 14.6 5.1 28.2
2002-11-28 09:09:14 51°26.955 2°56.007 7 14.6 4.5 28.3
2002-11-28 09:09:18 51°26.971 2°56.01 8.7 14.6 4.8 28.4
2002-11-28 09:09:24 51°26.995 2°56.012 8 14.6 4.2 28.2
2002-11-28 09:09:28 51°27.011 2°56.015 8.2 14.7 4.7 28.3
2002-11-28 09:09:32 51°27.028 2°56.017 8.2 14.8 4.4 27.6
2002-11-28 09:09:39 51°27.056 2°56.019 7.2 14.8 3.6 27
2002-11-28 09:09:45 51°27.081 2°56.022 7.5 14.7 3.7 26.4
2002-11-28 09:09:48 51°27.093 2°56.024 7.8 14.6 4 25.3
2002-11-28 09:09:54 51°27.117 2°56.027 8.5 14.6 4.9 27.2
2002-11-28 09:09:58 51°27.134 2°56.028 7.3 14.7 4.1 28.7
2002-11-28 09:10:04 51°27.158 2°56.033 8 14.8 4.4 28.9
2002-11-28 09:10:08 51°27.174 2°56.034 6.5 14.8 3.9 28.8
2002-11-28 09:10:14 51°27.199 2°56.038 8.3 14.7 5 28.6
2002-11-28 09:10:18 51°27.215 2°56.04 8.3 14.8 5.2 28.9
2002-11-28 09:10:24 51°27.24 2°56.043 7.5 14.8 4.2 28.8
2002-11-28 09:10:28 51°27.256 2°56.045 7 14.9 3.9 29.2
2002-11-28 09:10:34 51°27.281 2°56.048 7.5 14.9 4.1 29.1
2002-11-28 09:10:39 51°27.301 2°56.049 7.2 14.8 4.1 29.2
2002-11-28 09:10:44 51°27.322 2°56.051 6.5 14.7 3.4 29.2
2002-11-28 09:10:48 51°27.338 2°56.053 7.2 14.7 3.8 29.2
2002-11-28 09:10:54 51°27.362 2°56.057 7.5 14.7 4.6 29.2
2002-11-28 09:10:59 51°27.381 2°56.058 7.5 14.2 4.2 29
2002-11-28 09:11:04 51°27.398 2°56.061 7.8 13.2 5.2 28.9
2002-11-28 09:11:08 51°27.411 2°56.062 6.8 12.2 4.4 29.4
2002-11-28 09:11:14 51°27.43 2°56.062 1.5 11.3 1.4 29.6
2002-11-28 09:11:18 51°27.441 2°56.06 355.8 10.7 356.2 29.7
2002-11-28 09:11:24 51°27.458 2°56.057 353 10.4 354 29.6
2002-11-28 09:11:28 51°27.469 2°56.055 354.3 10.2 353 30
2002-11-28 09:11:34 51°27.486 2°56.053 357 10 354.8 30
2002-11-28 09:11:39 51°27.498 2°56.051 355 9.5 355.1 29.9
2002-11-28 09:11:45 51°27.511 2°56.044 345.5 8.8 348.5 30
2002-11-28 09:11:49 51°27.519 2°56.039 337.5 8.3 343.7 29.8
2002-11-28 09:11:54 51°27.527 2°56.03 328.7 7.6 333.5 29.8
2002-11-28 09:11:59 51°27.535 2°56.021 320.3 7.1 325.8 29.8
2002-11-28 09:12:04 51°27.54 2°56.011 310 6.5 318 29.7
2002-11-28 09:12:08 51°27.544 2°56.003 302.2 6.1 310.6 29.7
2002-11-28 09:12:14 51°27.549 2°55.99 293.2 5.7 303.2 29.5
2002-11-28 09:12:18 51°27.551 2°55.982 285.5 5.3 295.6 30
2002-11-28 09:12:24 51°27.553 2°55.969 277 5 288.3 29.6
2002-11-28 09:12:28 51°27.554 2°55.961 269.7 4.7 280.6 29.4
2002-11-28 09:12:35 51°27.553 2°55.947 262.2 4.5 272.9 29.1
2002-11-28 09:12:39 51°27.552 2°55.94 255.2 4.3 264.8 29.2
2002-11-28 09:12:44 51°27.551 2°55.932 247.2 4.1 256.4 29.4
2002-11-28 09:12:48 51°27.549 2°55.926 239.8 3.9 248.2 29.3
2002-11-28 09:12:54 51°27.546 2°55.917 232 3.8 241 29.2
2002-11-28 09:12:59 51°27.542 2°55.912 225.3 3.6 229.6 29.4
2002-11-28 09:13:05 51°27.537 2°55.906 217.5 3.6 223 29.2
2002-11-28 09:13:09 51°27.534 2°55.904 210.2 3.5 210.1 29.3
2002-11-28 09:13:15 51°27.528 2°55.902 202.8 3.5 201.8 29.3
2002-11-28 09:13:19 51°27.524 2°55.902 195.7 3.4 190.9 29.3
2002-11-28 09:13:24 51°27.52 2°55.902 187.7 3.4 182.4 29
2002-11-28 09:13:29 51°27.515 2°55.904 180.3 3.6 171.9 29.1
2002-11-28 09:13:33 51°27.51 2°55.907 174 3.9 163 29.4
2002-11-28 09:13:39 51°27.504 2°55.911 170.7 4.2 158.8 29.3
2002-11-28 09:13:45 51°27.496 2°55.917 168.3 4.5 155.3 29
2002-11-28 09:13:49 51°27.491 2°55.92 167.8 4.8 155.1 29.3
2002-11-28 09:13:55 51°27.484 2°55.926 168.2 5 154.5 29.2
2002-11-28 09:13:59 51°27.478 2°55.93 169.3 5.2 155.9 29.1
2002-11-28 09:14:05 51°27.47 2°55.935 171.3 5.3 158 29
2002-11-28 09:14:09 51°27.464 2°55.938 173.5 5.4 160.8 29.3
2002-11-28 09:14:14 51°27.457 2°55.941 176.2 5.4 163.1 29.3
2002-11-28 09:14:19 51°27.449 2°55.944 177.5 5.5 165.1 28.7
2002-11-28 09:14:25 51°27.44 2°55.948 177.7 5.6 165.4 29.2
2002-11-28 09:14:29 51°27.434 2°55.95 176.7 5.7 165.7 29.2
2002-11-28 09:14:35 51°27.425 2°55.956 174.8 5.8 163.9 29.2
2002-11-28 09:14:39 51°27.418 2°55.959 173 5.9 161.7 29.2
2002-11-28 09:14:45 51°27.41 2°55.967 168.2 6 157.4 29.1
2002-11-28 09:14:48 51°27.405 2°55.97 162.7 6 151.8 28.7
2002-11-28 09:14:54 51°27.397 2°55.98 155.2 6 144.5 29
2002-11-28 09:14:58 51°27.393 2°55.988 148.8 6.1 137.2 28.9
2002-11-28 09:15:04 51°27.386 2°56.001 142.7 6.2 131.7 29
2002-11-28 09:15:08 51°27.382 2°56.011 137.5 6.3 125.7 29.2
2002-11-28 09:15:14 51°27.377 2°56.026 134.7 6.5 121.9 28.9
2002-11-28 09:15:18 51°27.373 2°56.036 134 6.6 120.6 29.2
2002-11-28 09:15:24 51°27.368 2°56.053 131.5 6.7 117.7 29.3
2002-11-28 09:15:28 51°27.365 2°56.063 130.7 6.6 117 29.1
2002-11-28 09:15:34 51°27.361 2°56.078 129.7 6.4 114.4 29.2
2002-11-28 09:15:38 51°27.359 2°56.087 128.8 5.8 113.2 29.2
2002-11-28 09:15:44 51°27.356 2°56.099 129.2 5.2 110.2 29
2002-11-28 09:15:48 51°27.354 2°56.106 130 4.4 108.4 28.9
2002-11-28 09:15:54 51°27.353 2°56.114 129.2 3.6 104.9 28.7
2002-11-28 09:15:59 51°27.353 2°56.12 127.3 2.8 99.5 29
2002-11-28 09:16:04 51°27.354 2°56.124 126.5 2.2 86.9 28.9
2002-11-28 09:16:08 51°27.354 2°56.126 127 1.8 72 29.2
2002-11-28 09:16:14 51°27.356 2°56.129 127.7 1.5 60.8 28.9
2002-11-28 09:16:19 51°27.357 2°56.131 127.7 1.4 44.2 29.2
2002-11-28 09:16:24 51°27.359 2°56.133 127.5 1.4 34.8 28.7
2002-11-28 09:16:28 51°27.36 2°56.135 127.3 1.4 33.3 29.1
2002-11-28 09:16:34 51°27.362 2°56.137 127 1.5 34.6 29.1
2002-11-28 09:16:38 51°27.364 2°56.139 126.3 1.5 36.4 29.1
2002-11-28 09:16:44 51°27.366 2°56.141 125.2 1.5 37.2 29.1
2002-11-28 09:16:48 51°27.367 2°56.143 123.7 1.5 37.3 29.3
2002-11-28 09:16:54 51°27.369 2°56.145 122.5 1.6 37.6 28.9
2002-11-28 09:16:59 51°27.371 2°56.148 121.3 1.6 37.9 29.2
2002-11-28 09:17:04 51°27.373 2°56.15 119.8 1.6 38.3 29.3
2002-11-28 09:17:11 51°27.375 2°56.153 118.2 1.6 38.6 -999
2002-11-28 09:17:15 51°27.377 2°56.155 116.2 1.6 39 -999
2002-11-28 09:17:19 51°27.378 2°56.156 114.8 1.7 38.8 29.4
2002-11-28 09:17:25 51°27.38 2°56.159 113.3 1.6 38.9 29.5
2002-11-28 09:17:29 51°27.381 2°56.161 112 1.7 38.9 28.9
2002-11-28 09:17:35 51°27.384 2°56.164 110.3 1.7 39.8 29.5
2002-11-28 09:17:39 51°27.385 2°56.166 109.5 1.7 39.8 29.6
2002-11-28 09:17:45 51°27.387 2°56.168 107.8 1.7 40.5 29
2002-11-28 09:17:49 51°27.388 2°56.17 107 1.7 40.9 29.2
2002-11-28 09:17:55 51°27.39 2°56.173 106.2 1.7 41.3 29.5
2002-11-28 09:17:59 51°27.392 2°56.175 104.8 1.7 41.3 29.6
2002-11-28 09:18:05 51°27.394 2°56.178 103.5 1.7 40.9 29.6
2002-11-28 09:18:09 51°27.396 2°56.181 102.3 1.8 40 29.7
2002-11-28 09:18:15 51°27.398 2°56.184 101.2 1.8 40.9 29.4
2002-11-28 09:18:19 51°27.399 2°56.186 100.3 1.8 40.8 30
2002-11-28 09:18:25 51°27.401 2°56.189 99.3 1.7 40.7 29.9
2002-11-28 09:18:29 51°27.403 2°56.191 98.7 1.8 40 30
2002-11-28 09:18:35 51°27.405 2°56.194 98 1.7 41.3 29.6
2002-11-28 09:18:39 51°27.407 2°56.196 97.3 1.8 40.1 29.9
2002-11-28 09:18:45 51°27.409 2°56.199 96.8 1.8 40.9 29.9
2002-11-28 09:18:49 51°27.411 2°56.201 96.7 1.8 41.5 30
2002-11-28 09:18:55 51°27.413 2°56.204 96 1.8 40.8 29.6
2002-11-28 09:18:59 51°27.415 2°56.207 96 1.8 40.2 29.9
2002-11-28 09:19:05 51°27.417 2°56.21 96 1.8 39.2 29.5
2002-11-28 09:19:09 51°27.418 2°56.212 95.7 1.8 40.7 29.6
2002-11-28 09:19:15 51°27.42 2°56.215 96 1.8 41.5 29.7
2002-11-28 09:19:19 51°27.422 2°56.217 97 1.7 42.4 29.8
2002-11-28 09:19:25 51°27.424 2°56.22 97.2 1.8 42.2 29.8
2002-11-28 09:19:29 51°27.426 2°56.222 98 1.8 41.9 30
2002-11-28 09:19:35 51°27.428 2°56.225 98.8 1.8 41.8 30
2002-11-28 09:19:39 51°27.429 2°56.227 99.3 1.7 41.9 29.8
2002-11-28 09:19:45 51°27.431 2°56.231 99.8 1.7 42.8 30
2002-11-28 09:19:49 51°27.433 2°56.233 100.5 1.7 42.3 30.2
2002-11-28 09:19:55 51°27.435 2°56.236 101 1.8 43.4 29.9
2002-11-28 09:19:59 51°27.436 2°56.238 101.7 1.8 42.8 30.1
2002-11-28 09:20:05 51°27.438 2°56.241 102.2 1.6 46.5 29.8
2002-11-28 09:20:10 51°27.44 2°56.244 103 1.7 46.6 30.1
2002-11-28 09:20:15 51°27.441 2°56.246 103.3 1.7 45.7 30
2002-11-28 09:20:19 51°27.443 2°56.248 103.7 1.8 43.1 30
2002-11-28 09:20:25 51°27.445 2°56.252 104.3 1.7 43.9 30
2002-11-28 09:20:29 51°27.446 2°56.254 105.2 1.8 43.1 30.2
2002-11-28 09:20:35 51°27.448 2°56.257 105.7 1.7 44.6 30.1
2002-11-28 09:20:39 51°27.45 2°56.259 106 1.8 45 29.9
2002-11-28 09:20:45 51°27.451 2°56.263 106.5 1.7 46.5 30
2002-11-28 09:20:48 51°27.452 2°56.264 108.2 1.7 47.4 30.2
2002-11-28 09:20:54 51°27.454 2°56.268 109.3 1.7 47.8 30.1
2002-11-28 09:20:58 51°27.456 2°56.27 110 1.7 47.4 30.3
2002-11-28 09:21:05 51°27.458 2°56.274 110.2 1.7 46.2 30.2
2002-11-28 09:21:08 51°27.459 2°56.276 110.8 1.7 45.9 30.3
2002-11-28 09:21:14 51°27.461 2°56.279 111.2 1.7 46.1 30
2002-11-28 09:21:18 51°27.462 2°56.281 111.3 1.7 46.3 30.3
2002-11-28 09:21:24 51°27.464 2°56.285 111.5 1.7 47 30.3
2002-11-28 09:21:28 51°27.465 2°56.287 111.7 1.7 47.2 30.2
2002-11-28 09:21:32 51°27.467 2°56.289 111.7 1.7 46.6 30.1
2002-11-28 09:21:38 51°27.469 2°56.293 111.8 1.7 46.6 30.2
2002-11-28 09:21:44 51°27.471 2°56.296 112.5 1.7 46.2 30.1
2002-11-28 09:21:48 51°27.472 2°56.298 112.2 1.7 45.3 30.1